Time;durP1;ratioP1;P1;durP2;ratioP2;P2;SDS_P1;SDS_P2;PMS_P1;PMS_P2;Temp;Humidity;BMP_temperature;BMP_pressure;BME280_temperature;BME280_humidity;BME280_pressure;Samples;Min_cycle;Max_cycle;Signal;HPM_P1;HPM_P2
2021/08/31 00:02:15;;;;;;;23.13;13.02;;;;;;;;;;5074480;28;20051;-80
2021/08/31 00:04:43;;;;;;;24.25;13.18;;;;;;;;;;5055022;28;20144;-80
2021/08/31 00:07:10;;;;;;;29.17;12.85;;;;;;;;;;5050728;28;20087;-81
2021/08/31 00:09:37;;;;;;;26.50;14.38;;;;;;;;;;5034253;28;20148;-80
2021/08/31 00:12:04;;;;;;;27.20;13.00;;;;;;;;;;5033972;28;20087;-81
2021/08/31 00:14:32;;;;;;;26.25;13.10;;;;;;;;;;5041510;28;20076;-81
2021/08/31 00:17:00;;;;;;;25.23;14.10;;;;;;;;;;5014611;28;20461;-81
2021/08/31 00:19:27;;;;;;;21.75;12.15;;;;;;;;;;5031317;28;20132;-80
2021/08/31 00:21:54;;;;;;;28.52;14.13;;;;;;;;;;5020243;28;20120;-80
2021/08/31 00:24:22;;;;;;;23.42;13.75;;;;;;;;;;5062794;28;20733;-80
2021/08/31 00:26:49;;;;;;;33.00;14.23;;;;;;;;;;5035772;28;20084;-80
2021/08/31 00:29:23;;;;;;;31.35;13.63;;;;;;;;;;5061928;28;20076;-80
2021/08/31 00:31:51;;;;;;;27.55;13.82;;;;;;;;;;5055990;28;20135;-80
2021/08/31 00:34:19;;;;;;;27.00;13.35;;;;;;;;;;5057722;28;20075;-81
2021/08/31 00:36:46;;;;;;;22.10;12.63;;;;;;;;;;5032949;28;20441;-80
2021/08/31 00:39:14;;;;;;;26.90;13.27;;;;;;;;;;5015052;28;20100;-80
2021/08/31 00:41:41;;;;;;;23.88;12.43;;;;;;;;;;5033946;28;20137;-81
2021/08/31 00:44:16;;;;;;;31.35;15.18;;;;;;;;;;5019860;28;20115;-81
2021/08/31 00:46:43;;;;;;;26.75;13.63;;;;;;;;;;5053394;28;20687;-80
2021/08/31 00:49:11;;;;;;;25.10;12.75;;;;;;;;;;5035439;28;20088;-81
2021/08/31 00:51:38;;;;;;;20.27;11.52;;;;;;;;;;5035888;28;20121;-80
2021/08/31 00:54:05;;;;;;;20.73;11.50;;;;;;;;;;5039570;28;20387;-81
2021/08/31 00:56:38;;;;;;;23.48;12.23;;;;;;;;;;5051831;28;20080;-80
2021/08/31 00:59:06;;;;;;;20.02;12.00;;;;;;;;;;5039038;28;20072;-80
2021/08/31 01:01:35;;;;;;;26.25;12.82;;;;;;;;;;5072966;28;20044;-80
2021/08/31 01:04:02;;;;;;;23.95;11.98;;;;;;;;;;5066687;28;20079;-80
2021/08/31 01:06:31;;;;;;;24.23;12.15;;;;;;;;;;5035403;28;20095;-80
2021/08/31 01:08:58;;;;;;;29.02;13.50;;;;;;;;;;5053019;28;20081;-80
2021/08/31 01:11:26;;;;;;;24.35;11.85;;;;;;;;;;5053456;28;20094;-81
2021/08/31 01:13:53;;;;;;;22.77;10.95;;;;;;;;;;5048936;28;20129;-80
2021/08/31 01:16:21;;;;;;;23.40;11.15;;;;;;;;;;5033228;28;20141;-80
2021/08/31 01:18:49;;;;;;;17.50;10.13;;;;;;;;;;5015479;28;20065;-80
2021/08/31 01:21:16;;;;;;;16.52;10.68;;;;;;;;;;5015292;28;20470;-80
2021/08/31 01:23:48;;;;;;;19.73;10.45;;;;;;;;;;5058798;28;20156;-80
2021/08/31 01:26:16;;;;;;;16.25;9.18;;;;;;;;;;5049464;28;20102;-80
2021/08/31 01:28:46;;;;;;;21.75;10.90;;;;;;;;;;5061805;28;20052;-80
2021/08/31 01:31:13;;;;;;;21.98;11.18;;;;;;;;;;5068770;28;20059;-80
2021/08/31 01:33:40;;;;;;;23.10;11.20;;;;;;;;;;5071280;28;20052;-80
2021/08/31 01:36:13;;;;;;;21.77;12.20;;;;;;;;;;5035000;28;20091;-80
2021/08/31 01:38:41;;;;;;;23.08;12.52;;;;;;;;;;5052821;28;20064;-80
2021/08/31 01:41:08;;;;;;;28.85;12.57;;;;;;;;;;5034853;28;20049;-80
2021/08/31 01:43:36;;;;;;;24.17;11.93;;;;;;;;;;5034452;28;20139;-81
2021/08/31 01:46:03;;;;;;;24.15;12.20;;;;;;;;;;5052697;28;20068;-80
2021/08/31 01:48:30;;;;;;;20.00;11.00;;;;;;;;;;5052480;28;20045;-80
2021/08/31 01:50:58;;;;;;;18.95;10.82;;;;;;;;;;5034375;28;20079;-80
2021/08/31 01:53:25;;;;;;;19.30;10.60;;;;;;;;;;5061397;28;20091;-80
2021/08/31 01:55:54;;;;;;;19.08;9.90;;;;;;;;;;5047682;28;20139;-80
2021/08/31 01:58:21;;;;;;;18.15;9.75;;;;;;;;;;5064888;28;20139;-80
2021/08/31 02:00:48;;;;;;;21.50;11.50;;;;;;;;;;5065727;28;20096;-80
2021/08/31 02:03:19;;;;;;;16.63;10.30;;;;;;;;;;5047350;28;20040;-80
2021/08/31 02:05:46;;;;;;;17.65;10.80;;;;;;;;;;5039519;28;20080;-80
2021/08/31 02:08:15;;;;;;;20.17;11.25;;;;;;;;;;5016521;28;20080;-80
2021/08/31 02:10:42;;;;;;;20.70;11.77;;;;;;;;;;5038158;28;20132;-80
2021/08/31 02:13:10;;;;;;;24.63;12.82;;;;;;;;;;5037954;28;20111;-80
2021/08/31 02:15:38;;;;;;;23.15;12.05;;;;;;;;;;5054068;28;20052;-80
2021/08/31 02:18:06;;;;;;;24.20;13.15;;;;;;;;;;5072014;28;20550;-80
2021/08/31 02:20:33;;;;;;;23.08;12.43;;;;;;;;;;5055141;28;20152;-80
2021/08/31 02:23:04;;;;;;;25.88;12.85;;;;;;;;;;5025209;28;20544;-80
2021/08/31 02:25:32;;;;;;;22.40;12.60;;;;;;;;;;5036840;28;20083;-80
2021/08/31 02:27:59;;;;;;;22.52;11.88;;;;;;;;;;5029899;28;20128;-81
2021/08/31 02:30:27;;;;;;;30.63;13.02;;;;;;;;;;5041112;28;20070;-81
2021/08/31 02:33:02;;;;;;;22.77;13.23;;;;;;;;;;5028139;28;20108;-80
2021/08/31 02:35:29;;;;;;;23.75;11.80;;;;;;;;;;5031969;28;20694;-80
2021/08/31 02:37:56;;;;;;;20.80;11.43;;;;;;;;;;5042009;28;20075;-80
2021/08/31 02:40:24;;;;;;;22.63;11.20;;;;;;;;;;5038656;28;20724;-80
2021/08/31 02:42:56;;;;;;;29.85;12.90;;;;;;;;;;5015587;28;20045;-80
2021/08/31 02:45:23;;;;;;;20.30;11.25;;;;;;;;;;5033820;28;20131;-80
2021/08/31 02:47:57;;;;;;;22.50;11.70;;;;;;;;;;5042753;28;20447;-81
2021/08/31 02:50:25;;;;;;;22.05;11.32;;;;;;;;;;5014119;28;20649;-80
2021/08/31 02:52:53;;;;;;;20.23;11.23;;;;;;;;;;5030309;28;20048;-80
2021/08/31 02:55:21;;;;;;;22.50;11.57;;;;;;;;;;5059659;28;20053;-81
2021/08/31 02:57:48;;;;;;;23.08;11.25;;;;;;;;;;5056325;28;20131;-80
2021/08/31 03:00:19;;;;;;;23.10;12.05;;;;;;;;;;5045519;28;20094;-80
2021/08/31 03:02:46;;;;;;;21.70;11.60;;;;;;;;;;5071062;28;20044;-80
2021/08/31 03:05:15;;;;;;;18.15;10.82;;;;;;;;;;5035959;28;20083;-79
2021/08/31 03:07:42;;;;;;;17.55;9.00;;;;;;;;;;5035332;28;20080;-80
2021/08/31 03:10:09;;;;;;;22.13;10.80;;;;;;;;;;5031607;28;20077;-80
2021/08/31 03:12:36;;;;;;;17.17;10.02;;;;;;;;;;5013849;28;20685;-81
2021/08/31 03:15:05;;;;;;;21.88;10.18;;;;;;;;;;5050211;28;20084;-81
2021/08/31 03:17:34;;;;;;;18.55;9.30;;;;;;;;;;5053998;28;20053;-80
2021/08/31 03:20:01;;;;;;;16.27;8.57;;;;;;;;;;5019100;28;20469;-80
2021/08/31 03:22:28;;;;;;;19.65;9.30;;;;;;;;;;5046793;28;20132;-81
2021/08/31 03:24:56;;;;;;;17.23;8.60;;;;;;;;;;5047611;28;20075;-80
2021/08/31 03:27:25;;;;;;;15.80;9.25;;;;;;;;;;5056493;28;20131;-79
2021/08/31 03:29:52;;;;;;;19.95;10.93;;;;;;;;;;5065805;28;20464;-80
2021/08/31 03:32:23;;;;;;;24.73;10.40;;;;;;;;;;5054353;28;20159;-80
2021/08/31 03:34:50;;;;;;;18.45;9.68;;;;;;;;;;5054702;28;20486;-80
2021/08/31 03:37:17;;;;;;;24.25;10.80;;;;;;;;;;5036994;28;20132;-80
2021/08/31 03:39:44;;;;;;;17.30;10.20;;;;;;;;;;5022891;28;20132;-80
2021/08/31 03:42:12;;;;;;;23.40;10.43;;;;;;;;;;5016724;28;20125;-80
2021/08/31 03:44:39;;;;;;;25.08;11.20;;;;;;;;;;5017118;28;20136;-80
2021/08/31 03:47:06;;;;;;;19.02;10.80;;;;;;;;;;5034800;28;20073;-80
2021/08/31 03:49:33;;;;;;;30.08;13.00;;;;;;;;;;5016865;28;20136;-80
2021/08/31 03:52:00;;;;;;;29.23;13.05;;;;;;;;;;5022567;28;20782;-80
2021/08/31 03:54:27;;;;;;;39.83;17.25;;;;;;;;;;5046803;28;20128;-80
2021/08/31 03:56:56;;;;;;;42.72;16.70;;;;;;;;;;5070944;28;20636;-80
2021/08/31 03:59:23;;;;;;;50.90;18.38;;;;;;;;;;5037662;28;20124;-80
2021/08/31 04:01:51;;;;;;;69.05;19.92;;;;;;;;;;5036344;28;20049;-80
2021/08/31 04:04:18;;;;;;;83.50;19.92;;;;;;;;;;5053164;28;20059;-80
2021/08/31 04:06:45;;;;;;;77.70;21.50;;;;;;;;;;5056528;28;20489;-80
2021/08/31 04:09:12;;;;;;;75.82;21.48;;;;;;;;;;5055361;28;20485;-79
2021/08/31 04:11:39;;;;;;;128.68;25.88;;;;;;;;;;5062476;28;20077;-80
2021/08/31 04:14:07;;;;;;;77.30;23.33;;;;;;;;;;5036081;28;20152;-80
2021/08/31 04:16:35;;;;;;;78.20;22.88;;;;;;;;;;5070999;28;20127;-80
2021/08/31 04:19:02;;;;;;;79.68;22.60;;;;;;;;;;5055946;28;20135;-80
2021/08/31 04:21:29;;;;;;;71.28;20.92;;;;;;;;;;5054632;28;20127;-80
2021/08/31 04:23:56;;;;;;;58.00;19.35;;;;;;;;;;5048023;28;20053;-80
2021/08/31 04:26:24;;;;;;;46.00;17.38;;;;;;;;;;5053973;28;20079;-80
2021/08/31 04:28:52;;;;;;;48.20;19.45;;;;;;;;;;5032476;28;20131;-80
2021/08/31 04:31:22;;;;;;;50.53;18.55;;;;;;;;;;5035539;28;20052;-80
2021/08/31 04:33:50;;;;;;;54.58;19.33;;;;;;;;;;5036117;28;20084;-80
2021/08/31 04:36:18;;;;;;;47.85;19.65;;;;;;;;;;5035819;28;20118;-81
2021/08/31 04:38:45;;;;;;;44.00;18.08;;;;;;;;;;5053691;28;20110;-81
2021/08/31 04:41:13;;;;;;;41.63;17.27;;;;;;;;;;5053470;28;20049;-81
2021/08/31 04:43:43;;;;;;;36.78;16.52;;;;;;;;;;5035916;28;20139;-80
2021/08/31 04:46:10;;;;;;;31.83;15.30;;;;;;;;;;5053725;28;20120;-81
2021/08/31 04:48:37;;;;;;;34.05;14.80;;;;;;;;;;5052234;28;20099;-80
2021/08/31 04:51:06;;;;;;;32.95;15.73;;;;;;;;;;5053010;28;20123;-80
2021/08/31 04:53:33;;;;;;;31.40;14.43;;;;;;;;;;5041923;28;20080;-79
2021/08/31 04:56:01;;;;;;;33.65;16.02;;;;;;;;;;5038622;28;20570;-79
2021/08/31 04:58:29;;;;;;;29.90;14.30;;;;;;;;;;5051359;28;20140;-79
2021/08/31 05:00:56;;;;;;;28.58;14.95;;;;;;;;;;5036865;28;20104;-78
2021/08/31 05:03:23;;;;;;;28.02;14.98;;;;;;;;;;5051771;28;20052;-78
2021/08/31 05:05:50;;;;;;;29.55;15.13;;;;;;;;;;5028951;28;20083;-79
2021/08/31 05:08:17;;;;;;;31.67;15.18;;;;;;;;;;5035940;28;20128;-78
2021/08/31 05:10:45;;;;;;;29.55;14.85;;;;;;;;;;5030954;28;20536;-78
2021/08/31 05:13:12;;;;;;;37.95;15.45;;;;;;;;;;5041253;28;20088;-79
2021/08/31 05:15:39;;;;;;;32.95;15.43;;;;;;;;;;5030860;28;20049;-78
2021/08/31 05:18:06;;;;;;;29.77;14.50;;;;;;;;;;5023155;28;20109;-78
2021/08/31 05:20:33;;;;;;;34.83;16.00;;;;;;;;;;5029846;28;20045;-78
2021/08/31 05:23:01;;;;;;;36.28;15.43;;;;;;;;;;5049799;28;20079;-79
2021/08/31 05:25:29;;;;;;;30.73;16.40;;;;;;;;;;5067468;28;20052;-80
2021/08/31 05:27:57;;;;;;;35.35;16.02;;;;;;;;;;5050847;28;20602;-79
2021/08/31 05:30:24;;;;;;;40.45;16.73;;;;;;;;;;5048674;28;20061;-78
2021/08/31 05:32:51;;;;;;;31.65;16.08;;;;;;;;;;5032876;28;20186;-78
2021/08/31 05:35:18;;;;;;;35.80;16.60;;;;;;;;;;5035045;28;20466;-78
2021/08/31 05:37:46;;;;;;;32.97;16.17;;;;;;;;;;5036972;28;20080;-79
2021/08/31 05:40:14;;;;;;;39.42;16.92;;;;;;;;;;5035433;28;20077;-79
2021/08/31 05:42:41;;;;;;;33.20;16.65;;;;;;;;;;5033293;28;20091;-78
2021/08/31 05:45:14;;;;;;;38.83;17.52;;;;;;;;;;5051400;28;20446;-80
2021/08/31 05:47:42;;;;;;;32.53;15.73;;;;;;;;;;5050985;28;20064;-78
2021/08/31 05:50:12;;;;;;;35.53;15.63;;;;;;;;;;5032125;28;20053;-79
2021/08/31 05:52:40;;;;;;;39.30;17.58;;;;;;;;;;5024058;28;20044;-79
2021/08/31 05:55:17;;;;;;;39.33;16.85;;;;;;;;;;5053684;28;20055;-78
2021/08/31 05:57:45;;;;;;;39.10;18.48;;;;;;;;;;5044313;28;20053;-79
2021/08/31 06:00:12;;;;;;;31.63;16.55;;;;;;;;;;5043434;28;20080;-78
2021/08/31 06:02:44;;;;;;;38.10;16.52;;;;;;;;;;5053455;28;20098;-79
2021/08/31 06:05:12;;;;;;;31.60;15.25;;;;;;;;;;5056087;28;20495;-79
2021/08/31 06:07:40;;;;;;;36.30;15.68;;;;;;;;;;5048886;28;20132;-79
2021/08/31 06:10:08;;;;;;;31.95;14.90;;;;;;;;;;5070579;28;20101;-79
2021/08/31 06:12:36;;;;;;;28.92;14.32;;;;;;;;;;5071321;28;20848;-79
2021/08/31 06:15:05;;;;;;;27.00;13.27;;;;;;;;;;5054111;28;20072;-80
2021/08/31 06:17:37;;;;;;;31.20;14.75;;;;;;;;;;5052023;28;20052;-79
2021/08/31 06:20:09;;;;;;;28.00;14.40;;;;;;;;;;5054205;28;20099;-79
2021/08/31 06:22:37;;;;;;;33.60;13.45;;;;;;;;;;5037147;28;20068;-79
2021/08/31 06:25:04;;;;;;;22.33;12.00;;;;;;;;;;5045212;28;20427;-79
2021/08/31 06:27:33;;;;;;;25.65;12.00;;;;;;;;;;5064127;28;20044;-79
2021/08/31 06:30:02;;;;;;;26.52;11.80;;;;;;;;;;5045318;28;20055;-79
2021/08/31 06:32:33;;;;;;;19.05;10.82;;;;;;;;;;5054593;28;20053;-79
2021/08/31 06:35:04;;;;;;;19.00;10.88;;;;;;;;;;5054287;28;20503;-81
2021/08/31 06:37:33;;;;;;;20.90;10.00;;;;;;;;;;5033358;28;20057;-80
2021/08/31 06:40:01;;;;;;;18.08;9.50;;;;;;;;;;5013909;28;20410;-79
2021/08/31 06:42:28;;;;;;;18.42;8.80;;;;;;;;;;5030186;28;20056;-79
2021/08/31 06:44:56;;;;;;;17.52;8.88;;;;;;;;;;5028276;28;20136;-79
2021/08/31 06:47:23;;;;;;;14.70;8.35;;;;;;;;;;5037478;28;20105;-79
2021/08/31 06:49:50;;;;;;;20.30;9.20;;;;;;;;;;5028376;28;20124;-79
2021/08/31 06:52:17;;;;;;;16.55;8.90;;;;;;;;;;5053907;28;20517;-80
2021/08/31 06:54:45;;;;;;;17.73;9.35;;;;;;;;;;5049918;28;20119;-80
2021/08/31 06:57:20;;;;;;;22.48;8.75;;;;;;;;;;5069116;28;20073;-80
2021/08/31 06:59:47;;;;;;;22.52;8.80;;;;;;;;;;5067033;28;20041;-80
2021/08/31 07:02:15;;;;;;;18.67;8.77;;;;;;;;;;5037604;28;20072;-80
2021/08/31 07:04:42;;;;;;;16.45;8.00;;;;;;;;;;5038534;28;20049;-80
2021/08/31 07:07:09;;;;;;;12.95;7.35;;;;;;;;;;5037668;28;20064;-80
2021/08/31 07:09:37;;;;;;;16.08;7.68;;;;;;;;;;5042877;28;20089;-80
2021/08/31 07:12:13;;;;;;;17.63;7.68;;;;;;;;;;5034830;28;20547;-79
2021/08/31 07:14:40;;;;;;;20.20;8.48;;;;;;;;;;5055156;28;20131;-80
2021/08/31 07:17:07;;;;;;;20.10;8.27;;;;;;;;;;5037217;28;20739;-80
2021/08/31 07:19:37;;;;;;;18.08;7.90;;;;;;;;;;5054937;28;20059;-83
2021/08/31 07:22:04;;;;;;;21.48;8.25;;;;;;;;;;5035647;28;20119;-83
2021/08/31 07:24:37;;;;;;;14.65;7.05;;;;;;;;;;5040753;28;20143;-84
2021/08/31 07:27:05;;;;;;;14.00;7.47;;;;;;;;;;5070308;28;20045;-83
2021/08/31 07:29:32;;;;;;;12.95;7.07;;;;;;;;;;5048710;28;20076;-83
2021/08/31 07:31:59;;;;;;;12.60;7.43;;;;;;;;;;5075162;28;20057;-84
2021/08/31 07:34:28;;;;;;;14.60;8.23;;;;;;;;;;5057138;28;20087;-84
2021/08/31 07:36:56;;;;;;;13.43;6.60;;;;;;;;;;5075109;28;20053;-84
2021/08/31 07:39:23;;;;;;;18.75;6.65;;;;;;;;;;5045066;28;20072;-84
2021/08/31 07:41:50;;;;;;;12.77;6.95;;;;;;;;;;5055199;28;20091;-83
2021/08/31 07:44:19;;;;;;;12.32;6.65;;;;;;;;;;5037185;28;20049;-84
2021/08/31 07:46:47;;;;;;;12.05;6.68;;;;;;;;;;5054874;28;20083;-83
2021/08/31 07:49:14;;;;;;;11.25;6.20;;;;;;;;;;5055415;28;20156;-85
2021/08/31 07:51:42;;;;;;;11.43;6.47;;;;;;;;;;5054706;28;20471;-85
2021/08/31 07:54:10;;;;;;;9.85;5.82;;;;;;;;;;5062535;28;20442;-83
2021/08/31 07:56:37;;;;;;;17.17;6.28;;;;;;;;;;5034990;28;20144;-83
2021/08/31 07:59:05;;;;;;;14.43;6.43;;;;;;;;;;5040945;28;20075;-84
2021/08/31 08:01:32;;;;;;;10.77;5.63;;;;;;;;;;5073732;28;20699;-85
2021/08/31 08:04:00;;;;;;;7.20;4.78;;;;;;;;;;5058672;28;20823;-83
2021/08/31 08:06:27;;;;;;;9.73;5.55;;;;;;;;;;5036569;28;20073;-83
2021/08/31 08:08:55;;;;;;;10.38;5.40;;;;;;;;;;5054058;28;20131;-85
2021/08/31 08:11:23;;;;;;;12.75;5.88;;;;;;;;;;5036955;28;20153;-84
2021/08/31 08:13:51;;;;;;;11.10;4.85;;;;;;;;;;5053418;28;20081;-84
2021/08/31 08:16:20;;;;;;;10.82;4.80;;;;;;;;;;5036125;28;20084;-83
2021/08/31 08:18:50;;;;;;;9.70;4.57;;;;;;;;;;5064737;28;20258;-83
2021/08/31 08:21:18;;;;;;;8.77;4.90;;;;;;;;;;5074365;28;20076;-83
2021/08/31 08:23:45;;;;;;;9.85;4.55;;;;;;;;;;5055055;28;20581;-83
2021/08/31 08:26:16;;;;;;;7.25;4.85;;;;;;;;;;5052801;28;20056;-83
2021/08/31 08:28:43;;;;;;;10.68;5.25;;;;;;;;;;5061022;28;20083;-84
2021/08/31 08:31:11;;;;;;;6.45;4.30;;;;;;;;;;5039677;28;20084;-84
2021/08/31 08:33:45;;;;;;;13.73;4.93;;;;;;;;;;5053606;28;20068;-83
2021/08/31 08:36:12;;;;;;;7.78;4.53;;;;;;;;;;5053940;28;20537;-85
2021/08/31 08:38:39;;;;;;;10.55;4.75;;;;;;;;;;5035985;28;20076;-83
2021/08/31 08:41:06;;;;;;;9.20;4.40;;;;;;;;;;5054133;28;20121;-84
2021/08/31 08:43:35;;;;;;;8.98;4.18;;;;;;;;;;5035282;28;20103;-85
2021/08/31 08:46:03;;;;;;;15.75;4.72;;;;;;;;;;5016401;28;20124;-84
2021/08/31 08:48:31;;;;;;;8.30;4.30;;;;;;;;;;5015608;28;20081;-82
2021/08/31 08:51:00;;;;;;;8.20;4.45;;;;;;;;;;5033411;28;20573;-82
2021/08/31 08:53:32;;;;;;;6.88;4.18;;;;;;;;;;5041795;28;20569;-83
2021/08/31 08:56:01;;;;;;;10.40;4.85;;;;;;;;;;5068456;28;20135;-84
2021/08/31 08:58:28;;;;;;;6.80;4.38;;;;;;;;;;5047432;28;20053;-83
2021/08/31 09:01:11;;;;;;;12.73;4.65;;;;;;;;;;5050001;28;20127;-84
2021/08/31 09:03:40;;;;;;;10.45;5.00;;;;;;;;;;5073521;28;20055;-83
2021/08/31 09:06:15;;;;;;;8.25;4.53;;;;;;;;;;5073854;28;20186;-85
2021/08/31 09:08:54;;;;;;;7.43;4.28;;;;;;;;;;5046135;28;20045;-84
2021/08/31 09:11:32;;;;;;;8.23;4.07;;;;;;;;;;5016140;28;20050;-85
2021/08/31 09:14:16;;;;;;;8.25;4.30;;;;;;;;;;5015325;28;20084;-84
2021/08/31 09:16:47;;;;;;;6.88;4.40;;;;;;;;;;5015885;28;20088;-83
2021/08/31 09:19:14;;;;;;;7.38;4.40;;;;;;;;;;5033432;28;20045;-85
2021/08/31 09:21:41;;;;;;;7.32;3.90;;;;;;;;;;5021859;28;20124;-84
2021/08/31 09:24:11;;;;;;;8.43;4.50;;;;;;;;;;5061696;28;20076;-83
2021/08/31 09:26:43;;;;;;;12.32;3.95;;;;;;;;;;5070044;28;20079;-84
2021/08/31 09:29:15;;;;;;;7.18;4.38;;;;;;;;;;5041856;28;20072;-82
2021/08/31 09:31:47;;;;;;;7.80;4.45;;;;;;;;;;5015583;28;20062;-83
2021/08/31 09:34:33;;;;;;;8.38;3.83;;;;;;;;;;5032669;28;20085;-84
2021/08/31 09:37:01;;;;;;;;;;;;;;;;;;5033490;28;20053;-84
2021/08/31 09:39:29;;;;;;;9.25;3.78;;;;;;;;;;5050708;28;19925;-82
2021/08/31 09:42:07;;;;;;;8.90;4.57;;;;;;;;;;5052690;28;20060;-85
2021/08/31 09:44:34;;;;;;;7.30;4.57;;;;;;;;;;5052250;28;20088;-84
2021/08/31 09:47:02;;;;;;;8.98;4.05;;;;;;;;;;5034493;28;20049;-84
2021/08/31 09:49:33;;;;;;;7.80;4.53;;;;;;;;;;5059606;28;20553;-84
2021/08/31 09:52:05;;;;;;;7.03;4.00;;;;;;;;;;5017115;28;20512;-84
2021/08/31 09:54:35;;;;;;;10.63;4.40;;;;;;;;;;5015088;28;20103;-85
2021/08/31 09:57:23;;;;;;;8.48;4.13;;;;;;;;;;5037828;28;20048;-85
2021/08/31 09:59:50;;;;;;;6.78;4.22;;;;;;;;;;5041232;28;20076;-85
2021/08/31 10:02:17;;;;;;;10.32;4.53;;;;;;;;;;5054032;28;20071;-86
2021/08/31 10:04:44;;;;;;;8.82;4.05;;;;;;;;;;5033025;28;20047;-85
2021/08/31 10:07:13;;;;;;;12.57;3.85;;;;;;;;;;5032713;28;20124;-85
2021/08/31 10:09:40;;;;;;;7.35;3.95;;;;;;;;;;5038584;28;20048;-85
2021/08/31 10:12:08;;;;;;;7.03;4.07;;;;;;;;;;5039357;28;20065;-85
2021/08/31 10:14:39;;;;;;;9.48;5.13;;;;;;;;;;5041977;28;20044;-86
2021/08/31 10:17:08;;;;;;;7.90;4.03;;;;;;;;;;5034083;28;20045;-80
2021/08/31 10:19:35;;;;;;;9.30;4.43;;;;;;;;;;5042237;28;20131;-83
2021/08/31 10:22:03;;;;;;;6.50;4.15;;;;;;;;;;5052433;28;20083;-85
2021/08/31 10:24:30;;;;;;;12.23;4.00;;;;;;;;;;5052265;28;20080;-85
2021/08/31 10:26:57;;;;;;;7.68;4.45;;;;;;;;;;5029451;28;20133;-85
2021/08/31 10:29:26;;;;;;;6.22;3.67;;;;;;;;;;5041157;28;20114;-85
2021/08/31 10:31:54;;;;;;;13.55;3.92;;;;;;;;;;5045297;28;20049;-86
2021/08/31 10:34:33;;;;;;;13.13;4.57;;;;;;;;;;5032052;28;20081;-85
2021/08/31 10:37:06;;;;;;;8.85;4.00;;;;;;;;;;5014346;28;20496;-87
2021/08/31 10:39:43;;;;;;;9.82;4.00;;;;;;;;;;5032114;28;20061;-86
2021/08/31 10:42:22;;;;;;;8.00;4.45;;;;;;;;;;5032135;28;20077;-87
2021/08/31 10:44:49;;;;;;;8.95;4.03;;;;;;;;;;5014732;28;20053;-83
2021/08/31 10:47:27;;;;;;;5.75;3.65;;;;;;;;;;5033697;28;20096;-86
2021/08/31 10:49:57;;;;;;;5.13;3.30;;;;;;;;;;5063668;28;20044;-86
2021/08/31 10:52:41;;;;;;;6.30;3.35;;;;;;;;;;5071647;28;20048;-85
2021/08/31 10:55:26;;;;;;;8.20;3.47;;;;;;;;;;5072362;28;20076;-87
2021/08/31 10:57:54;;;;;;;6.93;4.07;;;;;;;;;;5064077;28;20871;-82
2021/08/31 11:00:22;;;;;;;8.43;3.83;;;;;;;;;;5062760;28;20482;-84
2021/08/31 11:02:49;;;;;;;10.13;4.75;;;;;;;;;;5022199;28;20124;-89
2021/08/31 11:05:19;;;;;;;8.73;3.72;;;;;;;;;;5031978;28;20712;-86
2021/08/31 11:07:49;;;;;;;8.18;4.00;;;;;;;;;;5031901;28;20518;-85
2021/08/31 11:10:27;;;;;;;9.23;3.97;;;;;;;;;;5014978;28;20045;-86
2021/08/31 11:12:55;;;;;;;13.82;4.05;;;;;;;;;;5035390;28;20092;-86
2021/08/31 11:15:26;;;;;;;6.25;3.85;;;;;;;;;;5054262;28;20481;-87
2021/08/31 11:17:54;;;;;;;8.38;3.92;;;;;;;;;;5053299;28;20516;-86
2021/08/31 11:20:21;;;;;;;5.38;3.25;;;;;;;;;;5045362;28;20052;-86
2021/08/31 11:22:50;;;;;;;5.63;3.65;;;;;;;;;;5053721;28;20136;-87
2021/08/31 11:25:25;;;;;;;6.63;3.97;;;;;;;;;;5043658;28;20053;-86
2021/08/31 11:28:03;;;;;;;6.17;3.77;;;;;;;;;;5033617;28;20127;-86
2021/08/31 11:30:45;;;;;;;8.50;4.22;;;;;;;;;;5044714;28;20049;-86
2021/08/31 11:33:14;;;;;;;7.88;3.75;;;;;;;;;;5053680;28;20052;-86
2021/08/31 11:35:41;;;;;;;6.03;3.80;;;;;;;;;;5053760;28;20139;-86
2021/08/31 11:38:15;;;;;;;5.82;3.55;;;;;;;;;;5073320;28;20139;-88
2021/08/31 11:40:43;;;;;;;6.38;3.47;;;;;;;;;;5035567;28;20453;-86
2021/08/31 11:43:10;;;;;;;5.65;3.25;;;;;;;;;;5034900;28;20077;-87
2021/08/31 11:45:39;;;;;;;7.18;3.80;;;;;;;;;;5032257;28;20081;-84
2021/08/31 11:48:07;;;;;;;4.80;3.33;;;;;;;;;;5062150;28;20040;-85
2021/08/31 11:50:35;;;;;;;6.72;3.97;;;;;;;;;;5049119;28;20535;-86
2021/08/31 11:53:19;;;;;;;7.78;4.47;;;;;;;;;;5056815;28;20078;-84
2021/08/31 11:55:57;;;;;;;5.35;3.53;;;;;;;;;;5075036;28;20174;-88
2021/08/31 11:58:27;;;;;;;6.32;3.88;;;;;;;;;;5063213;28;20130;-87
2021/08/31 12:00:55;;;;;;;8.90;4.07;;;;;;;;;;5060466;28;20091;-87
2021/08/31 12:03:23;;;;;;;6.28;3.53;;;;;;;;;;5054656;28;20051;-86
2021/08/31 12:05:54;;;;;;;8.43;3.92;;;;;;;;;;5037269;28;20049;-88
2021/08/31 12:08:22;;;;;;;8.13;4.30;;;;;;;;;;5054533;28;20131;-88
2021/08/31 12:10:52;;;;;;;6.85;4.40;;;;;;;;;;5016933;28;20141;-87
2021/08/31 12:13:22;;;;;;;7.55;4.47;;;;;;;;;;5016666;28;20111;-86
2021/08/31 12:15:50;;;;;;;9.27;4.28;;;;;;;;;;5017059;28;20057;-86
2021/08/31 12:18:19;;;;;;;6.25;4.38;;;;;;;;;;5052662;28;20108;-87
2021/08/31 12:20:47;;;;;;;11.75;4.53;;;;;;;;;;5049513;28;20132;-89
2021/08/31 12:23:14;;;;;;;7.03;3.67;;;;;;;;;;5056091;28;20149;-86
2021/08/31 12:25:42;;;;;;;6.22;3.50;;;;;;;;;;5074926;28;20127;-87
2021/08/31 12:28:10;;;;;;;5.97;3.80;;;;;;;;;;5050092;28;20882;-87
2021/08/31 12:30:39;;;;;;;9.40;4.30;;;;;;;;;;5057850;28;20508;-89
2021/08/31 12:33:07;;;;;;;11.07;4.38;;;;;;;;;;5073899;28;20083;-82
2021/08/31 12:35:45;;;;;;;5.82;3.88;;;;;;;;;;5058545;28;20080;-83
2021/08/31 12:38:14;;;;;;;8.45;4.18;;;;;;;;;;5054172;28;20179;-85
2021/08/31 12:40:50;;;;;;;10.20;4.88;;;;;;;;;;5036233;28;20099;-86
2021/08/31 12:43:18;;;;;;;9.63;4.43;;;;;;;;;;5036071;28;20103;-85
2021/08/31 12:45:53;;;;;;;8.95;5.15;;;;;;;;;;5053550;28;20135;-86
2021/08/31 12:48:34;;;;;;;10.38;4.20;;;;;;;;;;5043897;28;20160;-87
2021/08/31 12:51:05;;;;;;;11.23;4.35;;;;;;;;;;5050691;28;20049;-86
2021/08/31 12:53:37;;;;;;;8.13;4.70;;;;;;;;;;5055899;28;20437;-85
2021/08/31 12:56:05;;;;;;;14.45;4.82;;;;;;;;;;5073399;28;20080;-87
2021/08/31 12:58:35;;;;;;;16.55;4.45;;;;;;;;;;5064160;28;20045;-86
2021/08/31 13:01:18;;;;;;;9.18;4.28;;;;;;;;;;5039819;28;20044;-87
2021/08/31 13:03:51;;;;;;;9.55;4.60;;;;;;;;;;5035809;28;20056;-86
2021/08/31 13:06:38;;;;;;;9.38;4.50;;;;;;;;;;5053483;28;20144;-86
2021/08/31 13:09:12;;;;;;;9.73;4.43;;;;;;;;;;5046859;28;20059;-85
2021/08/31 13:11:42;;;;;;;10.57;4.38;;;;;;;;;;5073135;28;20072;-85
2021/08/31 13:14:10;;;;;;;11.05;4.90;;;;;;;;;;5072757;28;20596;-84
2021/08/31 13:16:38;;;;;;;8.55;4.55;;;;;;;;;;5072921;28;20139;-84
2021/08/31 13:19:05;;;;;;;11.75;4.75;;;;;;;;;;5047196;28;20589;-86
2021/08/31 13:21:33;;;;;;;9.48;4.82;;;;;;;;;;5053413;28;20041;-85
2021/08/31 13:24:01;;;;;;;7.85;5.07;;;;;;;;;;5035732;28;20072;-86
2021/08/31 13:26:29;;;;;;;9.40;5.53;;;;;;;;;;5053381;28;20087;-85
2021/08/31 13:28:56;;;;;;;12.27;4.95;;;;;;;;;;5061137;28;20071;-85
2021/08/31 13:31:23;;;;;;;10.10;5.05;;;;;;;;;;5054294;28;20081;-87
2021/08/31 13:33:51;;;;;;;8.45;4.90;;;;;;;;;;5052970;28;20049;-86
2021/08/31 13:36:18;;;;;;;11.07;4.85;;;;;;;;;;5035463;28;20143;-86
2021/08/31 13:38:55;;;;;;;7.95;4.70;;;;;;;;;;5034874;28;20131;-87
2021/08/31 13:41:22;;;;;;;7.93;4.68;;;;;;;;;;5050813;28;20144;-86
2021/08/31 13:43:51;;;;;;;7.68;4.25;;;;;;;;;;5042903;28;20119;-86
2021/08/31 13:46:21;;;;;;;10.73;4.25;;;;;;;;;;5052260;28;20682;-87
2021/08/31 13:48:49;;;;;;;7.40;4.60;;;;;;;;;;5060948;28;20437;-87
2021/08/31 13:51:20;;;;;;;10.85;4.55;;;;;;;;;;5069973;28;20489;-87
2021/08/31 13:53:47;;;;;;;8.20;4.40;;;;;;;;;;5068521;28;20095;-85
2021/08/31 13:56:14;;;;;;;14.77;4.95;;;;;;;;;;5054892;28;20091;-85
2021/08/31 13:58:41;;;;;;;10.20;4.30;;;;;;;;;;5061919;28;20122;-87
2021/08/31 14:01:09;;;;;;;8.23;5.03;;;;;;;;;;5035475;28;20057;-86
2021/08/31 14:03:37;;;;;;;8.10;4.65;;;;;;;;;;5034290;28;20049;-87
2021/08/31 14:06:04;;;;;;;13.57;4.85;;;;;;;;;;5035281;28;20387;-88
2021/08/31 14:08:31;;;;;;;7.68;4.63;;;;;;;;;;5051832;28;20140;-85
2021/08/31 14:10:59;;;;;;;7.68;4.70;;;;;;;;;;5039890;28;20048;-87
2021/08/31 14:13:26;;;;;;;10.00;4.53;;;;;;;;;;5051497;28;20132;-85
2021/08/31 14:15:53;;;;;;;9.20;4.72;;;;;;;;;;5052141;28;20089;-86
2021/08/31 14:18:20;;;;;;;7.40;4.47;;;;;;;;;;5052858;28;20143;-85
2021/08/31 14:20:47;;;;;;;7.75;4.78;;;;;;;;;;5041384;28;20088;-87
2021/08/31 14:23:14;;;;;;;9.55;4.93;;;;;;;;;;5034133;28;20461;-86
2021/08/31 14:25:42;;;;;;;12.75;5.15;;;;;;;;;;5033622;28;20076;-86
2021/08/31 14:28:10;;;;;;;8.93;4.85;;;;;;;;;;5059471;28;20114;-88
2021/08/31 14:30:37;;;;;;;11.80;5.35;;;;;;;;;;5055146;28;20223;-86
2021/08/31 14:33:07;;;;;;;9.18;4.50;;;;;;;;;;5046563;28;20087;-82
2021/08/31 14:35:36;;;;;;;6.55;4.20;;;;;;;;;;5047256;28;20186;-83
2021/08/31 14:38:03;;;;;;;7.38;4.25;;;;;;;;;;5044879;28;20790;-84
2021/08/31 14:40:33;;;;;;;7.35;4.63;;;;;;;;;;5049862;28;20726;-82